sensor_id;sensor_type;location;lat;lon;timestamp;P1;durP1;ratioP1;P2;durP2;ratioP2
27706;SDS011;36332;51.384;0.040;2022-09-13T00:01:22;6.25;;;3.72;;
27706;SDS011;36332;51.384;0.040;2022-09-13T00:03:49;9.25;;;3.65;;
27706;SDS011;36332;51.384;0.040;2022-09-13T00:06:38;8.98;;;3.85;;
27706;SDS011;36332;51.384;0.040;2022-09-13T00:09:06;12.30;;;4.60;;
27706;SDS011;36332;51.384;0.040;2022-09-13T00:11:35;7.57;;;3.70;;
27706;SDS011;36332;51.384;0.040;2022-09-13T00:14:03;9.57;;;3.88;;
27706;SDS011;36332;51.384;0.040;2022-09-13T00:16:30;10.23;;;3.70;;
27706;SDS011;36332;51.384;0.040;2022-09-13T00:18:59;7.65;;;3.42;;
27706;SDS011;36332;51.384;0.040;2022-09-13T00:21:27;7.70;;;3.40;;
27706;SDS011;36332;51.384;0.040;2022-09-13T00:23:55;12.10;;;4.20;;
27706;SDS011;36332;51.384;0.040;2022-09-13T00:26:26;7.95;;;3.72;;
27706;SDS011;36332;51.384;0.040;2022-09-13T00:28:56;12.88;;;4.35;;
27706;SDS011;36332;51.384;0.040;2022-09-13T00:31:25;9.25;;;4.30;;
27706;SDS011;36332;51.384;0.040;2022-09-13T00:33:55;9.88;;;3.67;;
27706;SDS011;36332;51.384;0.040;2022-09-13T00:36:25;6.72;;;3.70;;
27706;SDS011;36332;51.384;0.040;2022-09-13T00:38:53;8.20;;;4.25;;
27706;SDS011;36332;51.384;0.040;2022-09-13T00:41:22;10.32;;;4.03;;
27706;SDS011;36332;51.384;0.040;2022-09-13T00:43:53;9.35;;;4.80;;
27706;SDS011;36332;51.384;0.040;2022-09-13T00:49:11;12.38;;;3.92;;
27706;SDS011;36332;51.384;0.040;2022-09-13T00:51:55;8.48;;;3.58;;
27706;SDS011;36332;51.384;0.040;2022-09-13T00:54:32;8.45;;;3.58;;
27706;SDS011;36332;51.384;0.040;2022-09-13T00:57:10;6.82;;;3.80;;
27706;SDS011;36332;51.384;0.040;2022-09-13T01:00:03;12.40;;;4.35;;
27706;SDS011;36332;51.384;0.040;2022-09-13T01:02:57;9.20;;;3.92;;
27706;SDS011;36332;51.384;0.040;2022-09-13T01:05:36;11.65;;;4.30;;
27706;SDS011;36332;51.384;0.040;2022-09-13T01:08:09;8.60;;;4.72;;
27706;SDS011;36332;51.384;0.040;2022-09-13T01:10:42;10.40;;;4.13;;
27706;SDS011;36332;51.384;0.040;2022-09-13T01:13:13;9.18;;;4.45;;
27706;SDS011;36332;51.384;0.040;2022-09-13T01:15:46;6.03;;;4.18;;
27706;SDS011;36332;51.384;0.040;2022-09-13T01:18:16;12.80;;;4.43;;
27706;SDS011;36332;51.384;0.040;2022-09-13T01:26:24;7.72;;;3.72;;
27706;SDS011;36332;51.384;0.040;2022-09-13T01:35:21;6.43;;;3.53;;
27706;SDS011;36332;51.384;0.040;2022-09-13T01:48:53;6.57;;;4.40;;
27706;SDS011;36332;51.384;0.040;2022-09-13T01:59:46;9.13;;;4.15;;
27706;SDS011;36332;51.384;0.040;2022-09-13T02:02:33;8.27;;;4.68;;
27706;SDS011;36332;51.384;0.040;2022-09-13T02:05:15;7.30;;;3.88;;
27706;SDS011;36332;51.384;0.040;2022-09-13T02:08:15;8.80;;;3.88;;
27706;SDS011;36332;51.384;0.040;2022-09-13T02:10:52;10.65;;;3.85;;
27706;SDS011;36332;51.384;0.040;2022-09-13T02:13:27;8.27;;;3.90;;
27706;SDS011;36332;51.384;0.040;2022-09-13T02:16:01;5.20;;;3.08;;
27706;SDS011;36332;51.384;0.040;2022-09-13T02:18:43;8.63;;;4.03;;
27706;SDS011;36332;51.384;0.040;2022-09-13T02:21:22;11.48;;;2.95;;
27706;SDS011;36332;51.384;0.040;2022-09-13T02:24:07;3.67;;;3.33;;
27706;SDS011;36332;51.384;0.040;2022-09-13T02:26:44;8.20;;;3.33;;
27706;SDS011;36332;51.384;0.040;2022-09-13T02:29:14;10.13;;;3.40;;
27706;SDS011;36332;51.384;0.040;2022-09-13T02:34:18;10.40;;;3.50;;
27706;SDS011;36332;51.384;0.040;2022-09-13T02:36:49;5.07;;;3.35;;
27706;SDS011;36332;51.384;0.040;2022-09-13T02:39:20;7.95;;;3.25;;
27706;SDS011;36332;51.384;0.040;2022-09-13T02:49:41;8.88;;;3.95;;
27706;SDS011;36332;51.384;0.040;2022-09-13T02:52:35;11.13;;;4.10;;
27706;SDS011;36332;51.384;0.040;2022-09-13T03:00:53;10.35;;;4.85;;
27706;SDS011;36332;51.384;0.040;2022-09-13T03:03:22;7.70;;;5.15;;
27706;SDS011;36332;51.384;0.040;2022-09-13T03:05:51;9.40;;;4.30;;
27706;SDS011;36332;51.384;0.040;2022-09-13T03:08:19;5.88;;;4.25;;
27706;SDS011;36332;51.384;0.040;2022-09-13T03:16:32;11.93;;;4.97;;
27706;SDS011;36332;51.384;0.040;2022-09-13T03:19:38;11.63;;;5.47;;
27706;SDS011;36332;51.384;0.040;2022-09-13T03:31:17;19.67;;;10.65;;
27706;SDS011;36332;51.384;0.040;2022-09-13T03:36:26;18.98;;;11.10;;
27706;SDS011;36332;51.384;0.040;2022-09-13T03:39:25;23.52;;;12.38;;
27706;SDS011;36332;51.384;0.040;2022-09-13T03:42:05;26.98;;;12.43;;
27706;SDS011;36332;51.384;0.040;2022-09-13T03:44:42;16.55;;;11.70;;
27706;SDS011;36332;51.384;0.040;2022-09-13T03:47:13;18.60;;;12.13;;
27706;SDS011;36332;51.384;0.040;2022-09-13T03:49:43;16.98;;;11.75;;
27706;SDS011;36332;51.384;0.040;2022-09-13T03:52:12;19.23;;;12.55;;
27706;SDS011;36332;51.384;0.040;2022-09-13T03:54:39;21.90;;;11.82;;
27706;SDS011;36332;51.384;0.040;2022-09-13T03:59:44;19.90;;;12.15;;
27706;SDS011;36332;51.384;0.040;2022-09-13T04:02:17;15.68;;;11.32;;
27706;SDS011;36332;51.384;0.040;2022-09-13T04:04:46;18.35;;;11.85;;
27706;SDS011;36332;51.384;0.040;2022-09-13T04:07:15;19.35;;;11.93;;
27706;SDS011;36332;51.384;0.040;2022-09-13T04:09:45;18.15;;;12.48;;
27706;SDS011;36332;51.384;0.040;2022-09-13T04:12:13;19.67;;;12.25;;
27706;SDS011;36332;51.384;0.040;2022-09-13T04:14:42;16.92;;;11.75;;
27706;SDS011;36332;51.384;0.040;2022-09-13T04:17:10;18.40;;;11.90;;
27706;SDS011;36332;51.384;0.040;2022-09-13T04:19:39;14.40;;;11.35;;
27706;SDS011;36332;51.384;0.040;2022-09-13T04:22:09;19.25;;;12.18;;
27706;SDS011;36332;51.384;0.040;2022-09-13T04:32:30;12.93;;;10.10;;
27706;SDS011;36332;51.384;0.040;2022-09-13T04:34:59;18.25;;;11.30;;
27706;SDS011;36332;51.384;0.040;2022-09-13T04:37:26;13.80;;;11.02;;
27706;SDS011;36332;51.384;0.040;2022-09-13T04:39:54;11.07;;;8.70;;
27706;SDS011;36332;51.384;0.040;2022-09-13T04:42:21;11.48;;;8.55;;
27706;SDS011;36332;51.384;0.040;2022-09-13T04:44:49;14.20;;;9.10;;
27706;SDS011;36332;51.384;0.040;2022-09-13T04:47:16;11.70;;;8.55;;
27706;SDS011;36332;51.384;0.040;2022-09-13T04:49:45;11.23;;;8.38;;
27706;SDS011;36332;51.384;0.040;2022-09-13T04:52:14;12.10;;;8.43;;
27706;SDS011;36332;51.384;0.040;2022-09-13T04:54:41;10.20;;;7.68;;
27706;SDS011;36332;51.384;0.040;2022-09-13T04:57:09;13.45;;;8.40;;
27706;SDS011;36332;51.384;0.040;2022-09-13T04:59:38;11.75;;;8.70;;
27706;SDS011;36332;51.384;0.040;2022-09-13T05:02:05;11.57;;;8.70;;
27706;SDS011;36332;51.384;0.040;2022-09-13T05:04:33;9.20;;;8.13;;
27706;SDS011;36332;51.384;0.040;2022-09-13T05:07:00;11.95;;;8.27;;
27706;SDS011;36332;51.384;0.040;2022-09-13T05:09:28;12.52;;;8.57;;
27706;SDS011;36332;51.384;0.040;2022-09-13T05:11:55;11.85;;;9.25;;
27706;SDS011;36332;51.384;0.040;2022-09-13T05:14:23;13.63;;;9.73;;
27706;SDS011;36332;51.384;0.040;2022-09-13T05:16:51;16.63;;;9.43;;
27706;SDS011;36332;51.384;0.040;2022-09-13T05:19:18;11.40;;;8.75;;
27706;SDS011;36332;51.384;0.040;2022-09-13T05:21:46;16.42;;;9.02;;
27706;SDS011;36332;51.384;0.040;2022-09-13T05:24:13;13.30;;;9.15;;
27706;SDS011;36332;51.384;0.040;2022-09-13T05:26:41;14.57;;;10.20;;
27706;SDS011;36332;51.384;0.040;2022-09-13T05:29:09;12.65;;;9.45;;
27706;SDS011;36332;51.384;0.040;2022-09-13T05:31:37;11.73;;;10.10;;
27706;SDS011;36332;51.384;0.040;2022-09-13T05:34:08;9.95;;;8.00;;
27706;SDS011;36332;51.384;0.040;2022-09-13T05:36:37;15.40;;;9.68;;
27706;SDS011;36332;51.384;0.040;2022-09-13T05:39:05;13.18;;;9.02;;
27706;SDS011;36332;51.384;0.040;2022-09-13T05:41:56;13.82;;;10.23;;
27706;SDS011;36332;51.384;0.040;2022-09-13T05:44:24;11.40;;;9.13;;
27706;SDS011;36332;51.384;0.040;2022-09-13T05:46:52;16.08;;;10.05;;
27706;SDS011;36332;51.384;0.040;2022-09-13T05:49:19;17.75;;;9.65;;
27706;SDS011;36332;51.384;0.040;2022-09-13T05:51:48;12.95;;;10.45;;
27706;SDS011;36332;51.384;0.040;2022-09-13T05:54:15;17.00;;;10.18;;
27706;SDS011;36332;51.384;0.040;2022-09-13T05:56:43;15.57;;;10.20;;
27706;SDS011;36332;51.384;0.040;2022-09-13T05:59:11;10.45;;;9.27;;
27706;SDS011;36332;51.384;0.040;2022-09-13T06:01:40;12.30;;;9.82;;
27706;SDS011;36332;51.384;0.040;2022-09-13T06:04:08;10.85;;;9.05;;
27706;SDS011;36332;51.384;0.040;2022-09-13T06:06:35;13.52;;;9.55;;
27706;SDS011;36332;51.384;0.040;2022-09-13T06:09:03;12.88;;;9.63;;
27706;SDS011;36332;51.384;0.040;2022-09-13T06:11:32;13.10;;;9.25;;
27706;SDS011;36332;51.384;0.040;2022-09-13T06:14:00;15.50;;;10.02;;
27706;SDS011;36332;51.384;0.040;2022-09-13T06:16:28;13.65;;;9.05;;
27706;SDS011;36332;51.384;0.040;2022-09-13T06:18:56;11.52;;;9.52;;
27706;SDS011;36332;51.384;0.040;2022-09-13T06:21:24;18.48;;;9.93;;
27706;SDS011;36332;51.384;0.040;2022-09-13T06:23:55;13.32;;;9.48;;
27706;SDS011;36332;51.384;0.040;2022-09-13T06:26:24;17.45;;;8.80;;
27706;SDS011;36332;51.384;0.040;2022-09-13T06:28:54;14.15;;;9.30;;
27706;SDS011;36332;51.384;0.040;2022-09-13T06:31:24;11.30;;;8.65;;
27706;SDS011;36332;51.384;0.040;2022-09-13T06:33:57;14.02;;;8.30;;
27706;SDS011;36332;51.384;0.040;2022-09-13T06:36:28;10.68;;;8.10;;
27706;SDS011;36332;51.384;0.040;2022-09-13T06:38:57;11.43;;;8.40;;
27706;SDS011;36332;51.384;0.040;2022-09-13T06:41:26;9.48;;;7.47;;
27706;SDS011;36332;51.384;0.040;2022-09-13T06:43:55;12.77;;;8.38;;
27706;SDS011;36332;51.384;0.040;2022-09-13T06:46:25;11.73;;;8.52;;
27706;SDS011;36332;51.384;0.040;2022-09-13T06:48:57;12.85;;;7.60;;
27706;SDS011;36332;51.384;0.040;2022-09-13T06:51:26;15.55;;;8.48;;
27706;SDS011;36332;51.384;0.040;2022-09-13T06:53:56;12.35;;;7.85;;
27706;SDS011;36332;51.384;0.040;2022-09-13T06:56:26;14.10;;;7.65;;
27706;SDS011;36332;51.384;0.040;2022-09-13T06:58:56;11.20;;;7.75;;
27706;SDS011;36332;51.384;0.040;2022-09-13T07:01:29;9.68;;;7.53;;
27706;SDS011;36332;51.384;0.040;2022-09-13T07:04:03;9.35;;;7.55;;
27706;SDS011;36332;51.384;0.040;2022-09-13T07:06:32;11.23;;;7.50;;
27706;SDS011;36332;51.384;0.040;2022-09-13T07:09:05;18.75;;;9.45;;
27706;SDS011;36332;51.384;0.040;2022-09-13T07:11:35;15.35;;;10.07;;
27706;SDS011;36332;51.384;0.040;2022-09-13T07:14:04;11.68;;;9.55;;
27706;SDS011;36332;51.384;0.040;2022-09-13T07:16:33;20.73;;;10.75;;
27706;SDS011;36332;51.384;0.040;2022-09-13T07:19:04;14.20;;;10.13;;
27706;SDS011;36332;51.384;0.040;2022-09-13T07:21:34;19.90;;;9.82;;
27706;SDS011;36332;51.384;0.040;2022-09-13T07:24:02;16.75;;;9.82;;
27706;SDS011;36332;51.384;0.040;2022-09-13T07:26:30;13.77;;;9.50;;
27706;SDS011;36332;51.384;0.040;2022-09-13T07:28:59;18.63;;;10.18;;
27706;SDS011;36332;51.384;0.040;2022-09-13T07:31:30;14.98;;;9.90;;
27706;SDS011;36332;51.384;0.040;2022-09-13T07:34:00;13.45;;;9.05;;
27706;SDS011;36332;51.384;0.040;2022-09-13T07:36:31;11.30;;;8.80;;
27706;SDS011;36332;51.384;0.040;2022-09-13T07:39:00;10.55;;;8.00;;
27706;SDS011;36332;51.384;0.040;2022-09-13T07:41:29;14.27;;;7.40;;
27706;SDS011;36332;51.384;0.040;2022-09-13T07:43:58;14.43;;;7.53;;
27706;SDS011;36332;51.384;0.040;2022-09-13T07:46:28;10.07;;;7.28;;
27706;SDS011;36332;51.384;0.040;2022-09-13T07:49:02;10.18;;;6.50;;
27706;SDS011;36332;51.384;0.040;2022-09-13T07:51:34;7.28;;;5.40;;
27706;SDS011;36332;51.384;0.040;2022-09-13T07:54:04;8.88;;;6.13;;
27706;SDS011;36332;51.384;0.040;2022-09-13T07:56:34;15.35;;;6.03;;
27706;SDS011;36332;51.384;0.040;2022-09-13T07:59:04;11.48;;;5.70;;
27706;SDS011;36332;51.384;0.040;2022-09-13T08:01:34;7.65;;;5.43;;
27706;SDS011;36332;51.384;0.040;2022-09-13T08:04:07;10.88;;;6.85;;
27706;SDS011;36332;51.384;0.040;2022-09-13T08:06:38;8.55;;;5.93;;
27706;SDS011;36332;51.384;0.040;2022-09-13T08:09:07;9.07;;;6.07;;
27706;SDS011;36332;51.384;0.040;2022-09-13T08:11:39;7.85;;;6.53;;
27706;SDS011;36332;51.384;0.040;2022-09-13T08:14:13;10.45;;;5.97;;
27706;SDS011;36332;51.384;0.040;2022-09-13T08:16:42;19.55;;;6.57;;
27706;SDS011;36332;51.384;0.040;2022-09-13T08:19:12;11.60;;;5.85;;
27706;SDS011;36332;51.384;0.040;2022-09-13T08:21:42;10.70;;;5.75;;
27706;SDS011;36332;51.384;0.040;2022-09-13T08:24:12;11.50;;;6.82;;
27706;SDS011;36332;51.384;0.040;2022-09-13T08:26:43;11.10;;;6.35;;
27706;SDS011;36332;51.384;0.040;2022-09-13T08:29:12;11.27;;;6.72;;
27706;SDS011;36332;51.384;0.040;2022-09-13T08:31:40;11.60;;;6.35;;
27706;SDS011;36332;51.384;0.040;2022-09-13T08:34:12;9.75;;;5.95;;
27706;SDS011;36332;51.384;0.040;2022-09-13T08:36:41;9.90;;;6.28;;
27706;SDS011;36332;51.384;0.040;2022-09-13T08:39:10;26.73;;;6.65;;
27706;SDS011;36332;51.384;0.040;2022-09-13T08:41:47;13.45;;;7.47;;
27706;SDS011;36332;51.384;0.040;2022-09-13T08:49:43;12.25;;;8.63;;
27706;SDS011;36332;51.384;0.040;2022-09-13T09:00:56;22.55;;;11.88;;
27706;SDS011;36332;51.384;0.040;2022-09-13T09:03:37;17.90;;;10.43;;
27706;SDS011;36332;51.384;0.040;2022-09-13T09:06:08;19.33;;;11.45;;
27706;SDS011;36332;51.384;0.040;2022-09-13T09:08:50;27.55;;;11.85;;
27706;SDS011;36332;51.384;0.040;2022-09-13T09:11:55;18.48;;;12.10;;
27706;SDS011;36332;51.384;0.040;2022-09-13T09:14:57;21.98;;;13.38;;
27706;SDS011;36332;51.384;0.040;2022-09-13T09:17:51;25.17;;;13.18;;
27706;SDS011;36332;51.384;0.040;2022-09-13T09:20:39;28.55;;;13.07;;
27706;SDS011;36332;51.384;0.040;2022-09-13T09:23:16;18.00;;;11.48;;
27706;SDS011;36332;51.384;0.040;2022-09-13T09:25:56;16.33;;;11.95;;
27706;SDS011;36332;51.384;0.040;2022-09-13T09:28:54;16.63;;;11.27;;
27706;SDS011;36332;51.384;0.040;2022-09-13T09:31:38;22.38;;;11.35;;
27706;SDS011;36332;51.384;0.040;2022-09-13T09:36:46;12.75;;;9.80;;
27706;SDS011;36332;51.384;0.040;2022-09-13T09:39:23;14.80;;;10.07;;
27706;SDS011;36332;51.384;0.040;2022-09-13T09:41:58;19.45;;;9.43;;
27706;SDS011;36332;51.384;0.040;2022-09-13T09:44:27;14.82;;;11.23;;
27706;SDS011;36332;51.384;0.040;2022-09-13T09:46:59;21.60;;;11.88;;
27706;SDS011;36332;51.384;0.040;2022-09-13T09:52:43;22.10;;;10.35;;
27706;SDS011;36332;51.384;0.040;2022-09-13T09:55:27;17.88;;;10.32;;
27706;SDS011;36332;51.384;0.040;2022-09-13T09:58:02;18.27;;;9.98;;
27706;SDS011;36332;51.384;0.040;2022-09-13T10:00:33;17.08;;;9.73;;
27706;SDS011;36332;51.384;0.040;2022-09-13T10:03:17;15.13;;;10.05;;
27706;SDS011;36332;51.384;0.040;2022-09-13T10:05:47;18.35;;;11.15;;
27706;SDS011;36332;51.384;0.040;2022-09-13T10:08:25;18.40;;;11.52;;
27706;SDS011;36332;51.384;0.040;2022-09-13T10:10:56;25.30;;;13.05;;
27706;SDS011;36332;51.384;0.040;2022-09-13T10:13:26;23.83;;;12.85;;
27706;SDS011;36332;51.384;0.040;2022-09-13T10:15:58;24.10;;;12.48;;
27706;SDS011;36332;51.384;0.040;2022-09-13T10:18:29;18.05;;;12.52;;
27706;SDS011;36332;51.384;0.040;2022-09-13T10:23:45;18.08;;;11.35;;
27706;SDS011;36332;51.384;0.040;2022-09-13T10:26:17;17.77;;;11.32;;
27706;SDS011;36332;51.384;0.040;2022-09-13T10:31:29;24.63;;;12.30;;
27706;SDS011;36332;51.384;0.040;2022-09-13T10:34:01;42.40;;;25.58;;
27706;SDS011;36332;51.384;0.040;2022-09-13T10:36:33;22.38;;;16.25;;
27706;SDS011;36332;51.384;0.040;2022-09-13T10:39:18;21.83;;;13.90;;
27706;SDS011;36332;51.384;0.040;2022-09-13T10:42:04;21.25;;;14.07;;
27706;SDS011;36332;51.384;0.040;2022-09-13T10:47:05;23.08;;;16.17;;
27706;SDS011;36332;51.384;0.040;2022-09-13T10:49:55;22.42;;;15.30;;
27706;SDS011;36332;51.384;0.040;2022-09-13T10:58:32;21.70;;;15.18;;
27706;SDS011;36332;51.384;0.040;2022-09-13T11:00:34;31.15;;;16.75;;
27706;SDS011;36332;51.384;0.040;2022-09-13T11:22:48;29.52;;;17.80;;
27706;SDS011;36332;51.384;0.040;2022-09-13T11:25:37;27.75;;;17.42;;
27706;SDS011;36332;51.384;0.040;2022-09-13T11:40:14;23.33;;;15.80;;
27706;SDS011;36332;51.384;0.040;2022-09-13T11:46:00;22.40;;;15.07;;
27706;SDS011;36332;51.384;0.040;2022-09-13T11:51:45;17.48;;;14.02;;
27706;SDS011;36332;51.384;0.040;2022-09-13T12:00:03;18.40;;;13.25;;
27706;SDS011;36332;51.384;0.040;2022-09-13T12:02:56;21.00;;;12.85;;
27706;SDS011;36332;51.384;0.040;2022-09-13T12:05:41;20.40;;;11.70;;
27706;SDS011;36332;51.384;0.040;2022-09-13T12:08:17;16.70;;;12.18;;
27706;SDS011;36332;51.384;0.040;2022-09-13T12:10:52;15.07;;;11.80;;
27706;SDS011;36332;51.384;0.040;2022-09-13T12:13:36;19.08;;;13.52;;
27706;SDS011;36332;51.384;0.040;2022-09-13T12:16:11;19.20;;;13.90;;
27706;SDS011;36332;51.384;0.040;2022-09-13T12:18:49;20.38;;;14.60;;
27706;SDS011;36332;51.384;0.040;2022-09-13T12:21:22;17.45;;;11.77;;
27706;SDS011;36332;51.384;0.040;2022-09-13T12:32:04;16.15;;;12.10;;
27706;SDS011;36332;51.384;0.040;2022-09-13T12:34:45;13.85;;;10.88;;
27706;SDS011;36332;51.384;0.040;2022-09-13T12:42:38;13.77;;;8.95;;
27706;SDS011;36332;51.384;0.040;2022-09-13T13:01:45;11.07;;;8.65;;
27706;SDS011;36332;51.384;0.040;2022-09-13T13:04:17;8.90;;;7.97;;
27706;SDS011;36332;51.384;0.040;2022-09-13T13:06:57;10.93;;;7.35;;
27706;SDS011;36332;51.384;0.040;2022-09-13T13:09:43;11.15;;;8.35;;
27706;SDS011;36332;51.384;0.040;2022-09-13T13:12:24;11.15;;;7.88;;
27706;SDS011;36332;51.384;0.040;2022-09-13T13:14:59;16.13;;;7.68;;
27706;SDS011;36332;51.384;0.040;2022-09-13T13:39:30;14.20;;;6.82;;
27706;SDS011;36332;51.384;0.040;2022-09-13T13:49:51;12.25;;;5.35;;
27706;SDS011;36332;51.384;0.040;2022-09-13T13:52:39;10.43;;;4.50;;
27706;SDS011;36332;51.384;0.040;2022-09-13T14:01:13;16.58;;;3.95;;
27706;SDS011;36332;51.384;0.040;2022-09-13T14:03:54;11.75;;;3.88;;
27706;SDS011;36332;51.384;0.040;2022-09-13T14:06:46;5.97;;;4.13;;
27706;SDS011;36332;51.384;0.040;2022-09-13T14:12:42;12.02;;;5.70;;
27706;SDS011;36332;51.384;0.040;2022-09-13T14:21:28;9.98;;;4.05;;
27706;SDS011;36332;51.384;0.040;2022-09-13T14:24:06;7.63;;;4.00;;
27706;SDS011;36332;51.384;0.040;2022-09-13T14:26:51;10.55;;;4.32;;
27706;SDS011;36332;51.384;0.040;2022-09-13T14:29:20;8.88;;;4.25;;
27706;SDS011;36332;51.384;0.040;2022-09-13T14:31:50;7.82;;;3.00;;
27706;SDS011;36332;51.384;0.040;2022-09-13T14:34:26;10.48;;;3.92;;
27706;SDS011;36332;51.384;0.040;2022-09-13T14:37:00;13.18;;;3.53;;
27706;SDS011;36332;51.384;0.040;2022-09-13T14:39:29;6.43;;;3.33;;
27706;SDS011;36332;51.384;0.040;2022-09-13T14:42:01;5.57;;;2.63;;
27706;SDS011;36332;51.384;0.040;2022-09-13T14:44:29;6.35;;;3.05;;
27706;SDS011;36332;51.384;0.040;2022-09-13T14:49:42;10.98;;;3.60;;
27706;SDS011;36332;51.384;0.040;2022-09-13T14:52:29;12.00;;;3.67;;
27706;SDS011;36332;51.384;0.040;2022-09-13T14:55:00;6.55;;;3.72;;
27706;SDS011;36332;51.384;0.040;2022-09-13T14:57:33;10.73;;;2.67;;
27706;SDS011;36332;51.384;0.040;2022-09-13T15:00:05;12.23;;;2.90;;
27706;SDS011;36332;51.384;0.040;2022-09-13T15:02:45;5.22;;;2.45;;
27706;SDS011;36332;51.384;0.040;2022-09-13T15:05:28;6.63;;;2.28;;
27706;SDS011;36332;51.384;0.040;2022-09-13T15:07:58;9.48;;;2.42;;
27706;SDS011;36332;51.384;0.040;2022-09-13T15:10:27;8.85;;;2.92;;
27706;SDS011;36332;51.384;0.040;2022-09-13T15:21:01;7.00;;;3.30;;
27706;SDS011;36332;51.384;0.040;2022-09-13T15:23:32;8.23;;;3.25;;
27706;SDS011;36332;51.384;0.040;2022-09-13T15:26:10;8.88;;;2.90;;
27706;SDS011;36332;51.384;0.040;2022-09-13T15:31:11;7.90;;;2.83;;
27706;SDS011;36332;51.384;0.040;2022-09-13T15:36:46;7.82;;;2.38;;
27706;SDS011;36332;51.384;0.040;2022-09-13T15:39:17;8.05;;;2.92;;
27706;SDS011;36332;51.384;0.040;2022-09-13T15:41:53;9.13;;;3.10;;
27706;SDS011;36332;51.384;0.040;2022-09-13T15:44:27;7.50;;;3.00;;
27706;SDS011;36332;51.384;0.040;2022-09-13T15:46:58;8.77;;;3.60;;
27706;SDS011;36332;51.384;0.040;2022-09-13T15:49:28;9.88;;;2.55;;
27706;SDS011;36332;51.384;0.040;2022-09-13T15:51:58;13.55;;;3.15;;
27706;SDS011;36332;51.384;0.040;2022-09-13T15:54:32;7.03;;;2.58;;
27706;SDS011;36332;51.384;0.040;2022-09-13T15:59:34;13.90;;;2.97;;
27706;SDS011;36332;51.384;0.040;2022-09-13T16:02:11;12.95;;;3.72;;
27706;SDS011;36332;51.384;0.040;2022-09-13T16:04:46;10.23;;;3.00;;
27706;SDS011;36332;51.384;0.040;2022-09-13T16:07:14;9.55;;;3.50;;
27706;SDS011;36332;51.384;0.040;2022-09-13T16:09:43;11.15;;;3.00;;
27706;SDS011;36332;51.384;0.040;2022-09-13T16:12:11;13.35;;;3.08;;
27706;SDS011;36332;51.384;0.040;2022-09-13T16:14:39;15.30;;;2.75;;
27706;SDS011;36332;51.384;0.040;2022-09-13T16:17:11;10.90;;;3.17;;
27706;SDS011;36332;51.384;0.040;2022-09-13T16:19:45;11.07;;;2.83;;
27706;SDS011;36332;51.384;0.040;2022-09-13T16:22:13;11.85;;;2.88;;
27706;SDS011;36332;51.384;0.040;2022-09-13T16:24:41;8.15;;;2.50;;
27706;SDS011;36332;51.384;0.040;2022-09-13T16:27:12;9.38;;;2.67;;
27706;SDS011;36332;51.384;0.040;2022-09-13T16:29:41;11.93;;;3.20;;
27706;SDS011;36332;51.384;0.040;2022-09-13T16:32:09;13.13;;;3.42;;
27706;SDS011;36332;51.384;0.040;2022-09-13T16:34:37;16.48;;;3.90;;
27706;SDS011;36332;51.384;0.040;2022-09-13T16:37:05;10.90;;;5.05;;
27706;SDS011;36332;51.384;0.040;2022-09-13T16:39:32;10.68;;;3.92;;
27706;SDS011;36332;51.384;0.040;2022-09-13T16:42:00;6.68;;;2.83;;
27706;SDS011;36332;51.384;0.040;2022-09-13T16:44:28;9.93;;;2.35;;
27706;SDS011;36332;51.384;0.040;2022-09-13T16:46:55;8.27;;;2.75;;
27706;SDS011;36332;51.384;0.040;2022-09-13T16:49:24;6.15;;;2.50;;
27706;SDS011;36332;51.384;0.040;2022-09-13T16:51:51;8.82;;;2.50;;
27706;SDS011;36332;51.384;0.040;2022-09-13T16:54:19;11.52;;;2.60;;
27706;SDS011;36332;51.384;0.040;2022-09-13T16:56:47;7.60;;;2.88;;
27706;SDS011;36332;51.384;0.040;2022-09-13T16:59:14;10.50;;;3.92;;
27706;SDS011;36332;51.384;0.040;2022-09-13T17:01:42;9.40;;;3.30;;
27706;SDS011;36332;51.384;0.040;2022-09-13T17:04:09;18.50;;;3.40;;
27706;SDS011;36332;51.384;0.040;2022-09-13T17:06:37;10.68;;;2.35;;
27706;SDS011;36332;51.384;0.040;2022-09-13T17:09:05;10.88;;;3.58;;
27706;SDS011;36332;51.384;0.040;2022-09-13T17:11:34;9.77;;;3.15;;
27706;SDS011;36332;51.384;0.040;2022-09-13T17:14:04;8.20;;;2.90;;
27706;SDS011;36332;51.384;0.040;2022-09-13T17:16:35;18.13;;;3.72;;
27706;SDS011;36332;51.384;0.040;2022-09-13T17:19:06;14.52;;;3.88;;
27706;SDS011;36332;51.384;0.040;2022-09-13T17:21:37;13.13;;;3.97;;
27706;SDS011;36332;51.384;0.040;2022-09-13T17:24:05;13.40;;;5.40;;
27706;SDS011;36332;51.384;0.040;2022-09-13T17:26:39;8.77;;;6.00;;
27706;SDS011;36332;51.384;0.040;2022-09-13T17:29:09;29.60;;;12.07;;
27706;SDS011;36332;51.384;0.040;2022-09-13T17:31:38;22.00;;;14.70;;
27706;SDS011;36332;51.384;0.040;2022-09-13T17:34:06;26.85;;;16.70;;
27706;SDS011;36332;51.384;0.040;2022-09-13T17:36:34;28.88;;;15.95;;
27706;SDS011;36332;51.384;0.040;2022-09-13T17:39:01;22.88;;;13.00;;
27706;SDS011;36332;51.384;0.040;2022-09-13T17:41:29;19.13;;;9.98;;
27706;SDS011;36332;51.384;0.040;2022-09-13T17:43:56;16.15;;;11.27;;
27706;SDS011;36332;51.384;0.040;2022-09-13T17:46:25;15.32;;;7.57;;
27706;SDS011;36332;51.384;0.040;2022-09-13T17:48:56;14.38;;;5.93;;
27706;SDS011;36332;51.384;0.040;2022-09-13T17:51:25;17.40;;;5.97;;
27706;SDS011;36332;51.384;0.040;2022-09-13T17:53:58;12.30;;;4.60;;
27706;SDS011;36332;51.384;0.040;2022-09-13T17:56:29;10.32;;;4.13;;
27706;SDS011;36332;51.384;0.040;2022-09-13T17:59:05;13.73;;;3.63;;
27706;SDS011;36332;51.384;0.040;2022-09-13T18:01:51;16.08;;;4.07;;
27706;SDS011;36332;51.384;0.040;2022-09-13T18:04:20;13.77;;;4.30;;
27706;SDS011;36332;51.384;0.040;2022-09-13T18:06:50;8.32;;;3.30;;
27706;SDS011;36332;51.384;0.040;2022-09-13T18:09:18;7.25;;;3.78;;
27706;SDS011;36332;51.384;0.040;2022-09-13T18:11:47;15.77;;;4.40;;
27706;SDS011;36332;51.384;0.040;2022-09-13T18:14:16;8.15;;;3.33;;
27706;SDS011;36332;51.384;0.040;2022-09-13T18:16:44;16.88;;;3.78;;
27706;SDS011;36332;51.384;0.040;2022-09-13T18:19:12;12.20;;;3.15;;
27706;SDS011;36332;51.384;0.040;2022-09-13T18:21:40;12.35;;;3.60;;
27706;SDS011;36332;51.384;0.040;2022-09-13T18:24:08;15.57;;;3.25;;
27706;SDS011;36332;51.384;0.040;2022-09-13T18:26:35;11.68;;;3.47;;
27706;SDS011;36332;51.384;0.040;2022-09-13T18:29:05;7.53;;;3.13;;
27706;SDS011;36332;51.384;0.040;2022-09-13T18:31:36;7.97;;;3.72;;
27706;SDS011;36332;51.384;0.040;2022-09-13T18:34:05;9.90;;;3.03;;
27706;SDS011;36332;51.384;0.040;2022-09-13T18:36:35;12.02;;;4.38;;
27706;SDS011;36332;51.384;0.040;2022-09-13T18:39:04;15.38;;;3.67;;
27706;SDS011;36332;51.384;0.040;2022-09-13T18:41:34;11.70;;;4.40;;
27706;SDS011;36332;51.384;0.040;2022-09-13T18:44:03;17.30;;;4.20;;
27706;SDS011;36332;51.384;0.040;2022-09-13T18:46:31;10.15;;;4.35;;
27706;SDS011;36332;51.384;0.040;2022-09-13T18:49:00;18.90;;;5.35;;
27706;SDS011;36332;51.384;0.040;2022-09-13T18:51:33;17.25;;;4.88;;
27706;SDS011;36332;51.384;0.040;2022-09-13T18:54:03;17.45;;;4.63;;
27706;SDS011;36332;51.384;0.040;2022-09-13T18:56:32;12.75;;;3.83;;
27706;SDS011;36332;51.384;0.040;2022-09-13T18:59:01;21.70;;;4.70;;
27706;SDS011;36332;51.384;0.040;2022-09-13T19:01:35;16.85;;;5.15;;
27706;SDS011;36332;51.384;0.040;2022-09-13T19:04:12;14.13;;;4.82;;
27706;SDS011;36332;51.384;0.040;2022-09-13T19:06:43;8.65;;;4.70;;
27706;SDS011;36332;51.384;0.040;2022-09-13T19:09:16;15.90;;;5.05;;
27706;SDS011;36332;51.384;0.040;2022-09-13T19:11:47;19.42;;;5.85;;
27706;SDS011;36332;51.384;0.040;2022-09-13T19:14:26;18.50;;;5.25;;
27706;SDS011;36332;51.384;0.040;2022-09-13T19:16:55;15.45;;;6.72;;